Time;durP1;ratioP1;P1;durP2;ratioP2;P2;SDS_P1;SDS_P2;PMS_P1;PMS_P2;Temp;Humidity;BMP_temperature;BMP_pressure;BME280_temperature;BME280_humidity;BME280_pressure;Samples;Min_cycle;Max_cycle;Signal;HPM_P1;HPM_P2
2022/10/01 00:02:36;;;;;;;4.38;2.90;;;;;;;14.52;77.80;99737.75;8318690;28;20060;-48
2022/10/01 00:06:37;;;;;;;3.83;2.78;;;;;;;14.50;78.01;99734.41;8319865;28;20046;-47
2022/10/01 00:10:41;;;;;;;4.72;2.90;;;;;;;14.53;78.80;99720.44;8310383;28;20030;-48
2022/10/01 00:14:41;;;;;;;8.68;3.35;;;;;;;14.34;82.20;99723.69;8288274;28;20034;-51
2022/10/01 00:18:44;;;;;;;6.18;2.95;;;;;;;14.06;84.59;99724.41;8288635;28;20046;-48
2022/10/01 00:22:46;;;;;;;7.10;3.25;;;;;;;13.85;86.74;99704.16;8287498;28;20507;-47
2022/10/01 00:26:46;;;;;;;3.83;3.42;;;;;;;13.68;89.54;99705.31;8285076;28;20506;-49
2022/10/01 00:30:47;;;;;;;9.18;3.42;;;;;;;13.58;90.51;99687.56;8310866;28;20464;-48
2022/10/01 00:34:48;;;;;;;5.15;3.25;;;;;;;13.48;91.77;99684.25;8317731;28;20037;-48
2022/10/01 00:38:49;;;;;;;4.95;3.22;;;;;;;13.39;92.54;99672.56;8316222;28;20042;-48
2022/10/01 00:42:49;;;;;;;4.50;3.67;;;;;;;13.38;93.60;99656.47;8287160;28;20438;-47
2022/10/01 00:46:52;;;;;;;3.90;3.47;;;;;;;13.29;94.12;99649.38;8286197;28;20551;-47
2022/10/01 00:50:52;;;;;;;6.70;3.75;;;;;;;13.15;96.69;99631.16;8287209;28;20042;-48
2022/10/01 00:54:58;;;;;;;5.43;3.88;;;;;;;13.08;97.75;99624.75;8286387;28;20129;-47
2022/10/01 00:59:00;;;;;;;5.45;3.38;;;;;;;13.07;96.98;99617.63;8296728;28;20407;-48
2022/10/01 01:03:01;;;;;;;7.57;3.45;;;;;;;13.06;97.00;99605.09;8317920;28;20045;-48
2022/10/01 01:07:03;;;;;;;5.82;3.28;;;;;;;13.14;95.41;99589.59;8310202;28;20097;-48
2022/10/01 01:11:20;;;;;;;4.13;3.10;;;;;;;13.08;97.74;99594.88;8288171;28;20037;-48
2022/10/01 01:15:38;;;;;;;5.45;3.42;;;;;;;12.99;99.61;99579.69;8291943;28;20045;-47
2022/10/01 01:20:12;;;;;;;4.30;2.85;;;;;;;12.95;99.66;99581.03;8293247;28;20487;-48
2022/10/01 01:24:42;;;;;;;8.48;3.50;;;;;;;12.83;100.00;99572.47;8280769;28;20062;-48
2022/10/01 01:28:49;;;;;;;42.35;3.33;;;;;;;12.90;100.00;99561.75;8301918;28;20057;-48
2022/10/01 01:33:00;;;;;;;4.20;2.85;;;;;;;12.83;100.00;99550.78;8297531;28;20126;-48
2022/10/01 01:37:10;;;;;;;3.67;2.70;;;;;;;12.84;100.00;99546.19;8294802;28;20088;-48
2022/10/01 01:41:14;;;;;;;3.72;2.70;;;;;;;12.83;100.00;99539.06;8290305;28;20056;-47
2022/10/01 01:45:21;;;;;;;5.05;2.60;;;;;;;12.80;100.00;99517.72;8296803;28;20040;-48
2022/10/01 01:49:22;;;;;;;7.05;2.63;;;;;;;12.83;100.00;99495.66;8292939;28;20066;-48
2022/10/01 01:53:24;;;;;;;3.42;2.88;;;;;;;12.86;100.00;99484.47;8294462;28;20080;-48
2022/10/01 01:57:25;;;;;;;3.30;2.47;;;;;;;12.86;100.00;99473.59;8293753;28;20061;-48
2022/10/01 02:01:38;;;;;;;4.32;2.67;;;;;;;12.81;100.00;99444.31;8322743;28;20034;-48
2022/10/01 02:05:53;;;;;;;3.60;2.45;;;;;;;12.86;100.00;99432.91;8328551;28;20049;-48
2022/10/01 02:14:31;;;;;;;4.15;1.98;;;;;;;12.82;100.00;99418.03;8388781;27;20453;-47
2022/10/01 02:23:13;;;;;;;2.45;2.22;;;;;;;12.94;100.00;99381.31;8387436;27;20353;-47
2022/10/01 02:27:23;;;;;;;1.70;1.25;;;;;;;12.93;100.00;99388.59;8384279;28;20029;-48
2022/10/01 02:31:23;;;;;;;4.20;1.65;;;;;;;12.94;100.00;99392.19;8377914;28;20406;-50
2022/10/01 02:35:27;;;;;;;2.50;1.60;;;;;;;12.93;100.00;99398.63;8385880;28;20072;-50
2022/10/01 02:39:29;;;;;;;2.22;1.55;;;;;;;12.90;100.00;99415.28;8384748;28;20081;-51
2022/10/01 02:43:37;;;;;;;4.35;1.60;;;;;;;12.88;100.00;99439.03;8383490;28;20047;-50
2022/10/01 02:47:43;;;;;;;1.58;1.42;;;;;;;12.84;100.00;99443.94;8385112;28;20037;-51
2022/10/01 02:51:54;;;;;;;5.28;1.08;;;;;;;12.83;100.00;99408.88;8384998;28;20447;-52
2022/10/01 02:55:57;;;;;;;4.07;1.48;;;;;;;12.82;100.00;99402.63;8382900;28;20553;-50
2022/10/01 03:00:00;;;;;;;3.08;1.00;;;;;;;12.80;100.00;99401.09;8383274;28;20051;-50
2022/10/01 03:04:01;;;;;;;1.27;1.00;;;;;;;12.76;100.00;99369.94;8384143;28;20444;-51
2022/10/01 03:08:01;;;;;;;0.98;0.80;;;;;;;12.77;100.00;99379.75;8385079;28;20098;-50
2022/10/01 03:12:02;;;;;;;1.55;1.00;;;;;;;12.74;100.00;99372.00;8407350;28;20545;-50
2022/10/01 03:16:02;;;;;;;1.95;0.68;;;;;;;12.76;100.00;99369.94;8417880;28;20058;-52
2022/10/01 03:20:04;;;;;;;1.10;0.70;;;;;;;12.78;100.00;99385.00;8416750;28;20028;-53
2022/10/01 03:24:05;;;;;;;1.20;0.60;;;;;;;12.83;100.00;99387.19;8416753;28;20517;-51
2022/10/01 03:28:05;;;;;;;0.75;0.52;;;;;;;12.86;100.00;99370.53;8417852;28;20359;-52
2022/10/01 03:32:06;;;;;;;4.75;0.52;;;;;;;12.86;100.00;99351.53;8406876;28;20025;-50
2022/10/01 03:36:06;;;;;;;2.03;0.40;;;;;;;12.82;100.00;99347.53;8393570;28;20032;-52
2022/10/01 03:40:07;;;;;;;1.70;0.50;;;;;;;12.82;100.00;99347.53;8393599;28;20037;-54
2022/10/01 03:44:07;;;;;;;1.60;0.40;;;;;;;12.87;100.00;99339.69;8395369;28;20420;-54
2022/10/01 03:48:07;;;;;;;1.38;0.50;;;;;;;12.84;100.00;99340.06;8394764;28;20403;-51
2022/10/01 03:52:08;;;;;;;0.65;0.38;;;;;;;12.85;100.00;99325.47;8393974;28;20032;-51
2022/10/01 03:56:08;;;;;;;1.33;0.30;;;;;;;12.87;100.00;99312.56;8393442;28;20036;-54
2022/10/01 04:00:09;;;;;;;1.40;0.20;;;;;;;12.95;100.00;99309.75;8393284;28;20117;-55
2022/10/01 04:04:10;;;;;;;1.45;0.35;;;;;;;12.95;100.00;99279.91;8392957;28;20823;-52
2022/10/01 04:08:11;;;;;;;0.47;0.40;;;;;;;12.98;100.00;99293.09;8393308;28;20502;-51
2022/10/01 04:12:11;;;;;;;2.70;0.30;;;;;;;13.04;100.00;99287.81;8391521;28;20025;-53
2022/10/01 04:16:12;;;;;;;0.53;0.30;;;;;;;13.06;100.00;99252.38;8393866;28;20116;-52
2022/10/01 04:20:12;;;;;;;0.60;0.30;;;;;;;13.09;100.00;99208.59;8391676;28;20279;-55
2022/10/01 04:24:13;;;;;;;1.40;0.30;;;;;;;13.08;100.00;99193.31;8393134;28;20028;-52
2022/10/01 04:28:14;;;;;;;0.45;0.20;;;;;;;13.04;100.00;99097.91;8391580;28;20040;-52
2022/10/01 04:32:21;;;;;;;0.20;0.20;;;;;;;13.05;100.00;99177.44;8389938;28;20128;-54
2022/10/01 04:36:22;;;;;;;0.50;0.30;;;;;;;13.04;100.00;99159.47;8383523;28;20515;-55
2022/10/01 04:40:23;;;;;;;0.32;0.20;;;;;;;13.02;100.00;99191.38;8385518;28;20056;-54
2022/10/01 04:44:23;;;;;;;0.25;0.20;;;;;;;13.06;100.00;99247.78;8390242;28;20131;-55
2022/10/01 04:48:24;;;;;;;1.98;0.20;;;;;;;13.10;100.00;99280.81;8392615;28;20067;-55
2022/10/01 04:52:25;;;;;;;1.00;0.20;;;;;;;13.10;100.00;99286.22;8392198;28;20032;-56
2022/10/01 04:56:25;;;;;;;0.43;0.25;;;;;;;13.11;100.00;99298.75;8393059;28;20044;-55
2022/10/01 05:00:26;;;;;;;0.50;0.20;;;;;;;13.11;100.00;99302.31;8391813;28;20037;-55
2022/10/01 05:04:26;;;;;;;0.13;0.13;;;;;;;13.17;100.00;99303.44;8391520;28;20090;-55
2022/10/01 05:08:27;;;;;;;0.30;0.20;;;;;;;13.25;100.00;99292.50;8391501;28;20463;-54
2022/10/01 05:12:28;;;;;;;0.10;0.10;;;;;;;13.28;100.00;99290.28;8384824;28;20127;-56
2022/10/01 05:16:28;;;;;;;0.20;0.20;;;;;;;13.28;100.00;99284.00;8391926;28;20086;-55
2022/10/01 05:20:28;;;;;;;0.20;0.10;;;;;;;13.25;100.00;99278.94;8387784;28;20041;-54
2022/10/01 05:24:29;;;;;;;1.27;0.10;;;;;;;13.32;100.00;99288.84;8390967;28;20283;-56
2022/10/01 05:28:29;;;;;;;0.30;0.30;;;;;;;13.35;100.00;99284.91;8391296;28;20032;-54
2022/10/01 05:32:30;;;;;;;0.28;0.20;;;;;;;13.41;100.00;99289.59;8390872;28;20036;-56
2022/10/01 05:36:31;;;;;;;1.55;0.15;;;;;;;13.44;100.00;99291.94;8391244;28;20842;-55
2022/10/01 05:40:32;;;;;;;0.20;0.20;;;;;;;13.47;100.00;99305.13;8389414;28;20049;-55
2022/10/01 05:44:36;;;;;;;0.25;0.10;;;;;;;13.53;100.00;99299.78;8388890;28;20647;-53
2022/10/01 05:48:37;;;;;;;;;;;;;;;13.61;100.00;99307.00;8391012;28;20066;-53
2022/10/01 05:52:37;;;;;;;0.10;0.10;;;;;;;13.73;100.00;99308.19;8388864;28;19922;-54
2022/10/01 05:56:38;;;;;;;0.63;0.10;;;;;;;13.85;100.00;99333.84;8390216;28;20036;-52
2022/10/01 06:00:40;;;;;;;0.00;0.00;;;;;;;13.92;100.00;99342.91;8389910;28;20263;-56
2022/10/01 06:04:41;;;;;;;0.98;0.10;;;;;;;13.95;100.00;99337.09;8389188;28;20052;-56
2022/10/01 06:08:44;;;;;;;0.20;0.10;;;;;;;14.00;100.00;99352.81;8388985;28;20040;-55
2022/10/01 06:12:45;;;;;;;0.17;0.10;;;;;;;14.03;100.00;99353.25;8389884;28;20048;-56
2022/10/01 06:16:46;;;;;;;0.10;0.10;;;;;;;13.99;100.00;99354.69;8379318;28;20032;-54
2022/10/01 06:20:46;;;;;;;0.60;0.30;;;;;;;13.88;100.00;99344.34;8386259;28;20048;-55
2022/10/01 06:24:47;;;;;;;0.40;0.25;;;;;;;13.77;100.00;99342.09;8388447;28;20051;-53
2022/10/01 06:28:49;;;;;;;0.10;0.10;;;;;;;13.82;100.00;99358.66;8385060;28;20556;-52
2022/10/01 06:32:49;;;;;;;0.30;0.10;;;;;;;13.83;100.00;99355.75;8381356;28;20040;-56
2022/10/01 06:36:50;;;;;;;0.30;0.10;;;;;;;13.85;100.00;99352.88;8389241;28;20107;-55
2022/10/01 06:40:52;;;;;;;3.10;0.20;;;;;;;13.94;100.00;99361.75;8389188;28;20305;-56
2022/10/01 06:44:53;;;;;;;0.63;0.17;;;;;;;13.94;100.00;99373.47;8389009;28;20091;-56
2022/10/01 06:48:53;;;;;;;0.22;0.20;;;;;;;13.96;100.00;99363.22;8385162;28;20048;-56
2022/10/01 06:52:55;;;;;;;0.50;0.23;;;;;;;14.02;100.00;99365.19;8382123;28;20041;-56
2022/10/01 06:56:55;;;;;;;0.60;0.20;;;;;;;14.08;100.00;99358.97;8389616;28;20283;-53
2022/10/01 07:01:00;;;;;;;1.60;0.20;;;;;;;14.15;100.00;99370.75;8382471;28;20043;-53
2022/10/01 07:05:00;;;;;;;;;;;;;;;14.19;100.00;99361.22;8383396;28;20305;-56
2022/10/01 07:09:00;;;;;;;0.85;0.20;;;;;;;14.24;100.00;99369.66;8391565;28;20382;-56
2022/10/01 07:13:12;;;;;;;0.32;0.17;;;;;;;14.34;100.00;99370.22;8386953;28;20040;-56
2022/10/01 07:17:13;;;;;;;0.10;0.10;;;;;;;14.40;100.00;99369.44;8391770;28;20029;-56
2022/10/01 07:21:13;;;;;;;1.35;0.30;;;;;;;14.52;100.00;99375.19;8390832;28;20036;-55
2022/10/01 07:25:14;;;;;;;0.20;0.13;;;;;;;14.61;100.00;99374.03;8391033;28;20037;-56
2022/10/01 07:29:14;;;;;;;2.80;0.40;;;;;;;14.73;100.00;99381.47;8394016;28;20033;-54
2022/10/01 07:33:18;;;;;;;0.30;0.20;;;;;;;14.82;100.00;99374.84;8392527;28;20047;-53
2022/10/01 07:37:18;;;;;;;3.08;0.30;;;;;;;14.95;100.00;99387.75;8349987;28;20033;-55
2022/10/01 07:41:18;;;;;;;2.50;0.30;;;;;;;15.11;100.00;99388.31;8371221;28;20044;-53
2022/10/01 07:45:20;;;;;;;1.40;0.28;;;;;;;15.44;100.00;99396.78;8357848;28;20049;-56
2022/10/01 07:49:23;;;;;;;1.08;0.38;;;;;;;15.65;100.00;99399.44;8360126;28;20037;-56
2022/10/01 07:53:24;;;;;;;0.85;0.30;;;;;;;15.84;100.00;99400.56;8359228;28;20056;-56
2022/10/01 07:57:24;;;;;;;0.47;0.20;;;;;;;15.85;100.00;99405.81;8359111;28;20558;-53
2022/10/01 08:01:25;;;;;;;2.40;0.20;;;;;;;15.94;100.00;99403.75;8358061;28;20072;-53
2022/10/01 08:05:29;;;;;;;2.05;0.40;;;;;;;16.33;100.00;99406.69;8358089;28;20303;-53
2022/10/01 08:09:29;;;;;;;2.37;0.20;;;;;;;16.61;98.65;99411.00;8363034;28;20033;-53
2022/10/01 08:13:30;;;;;;;1.23;0.30;;;;;;;16.78;97.88;99414.19;8355038;28;20574;-53
2022/10/01 08:17:30;;;;;;;3.03;0.40;;;;;;;16.81;96.81;99414.59;8355991;28;20438;-54
2022/10/01 08:21:31;;;;;;;1.10;0.30;;;;;;;16.95;97.06;99437.31;8350293;28;20052;-55
2022/10/01 08:25:32;;;;;;;1.13;0.30;;;;;;;17.13;97.32;99434.81;8348136;28;20079;-55
2022/10/01 08:29:33;;;;;;;0.43;0.38;;;;;;;17.33;94.19;99432.94;8343722;28;20299;-53
2022/10/01 08:33:34;;;;;;;1.73;0.50;;;;;;;17.14;95.80;99436.50;8351314;28;20628;-56
2022/10/01 08:37:34;;;;;;;3.47;0.50;;;;;;;16.98;97.65;99439.63;8349276;28;20060;-56
2022/10/01 08:41:48;;;;;;;3.25;0.50;;;;;;;16.92;97.57;99443.19;8352602;28;20105;-53
2022/10/01 08:45:51;;;;;;;2.58;0.60;;;;;;;16.98;97.92;99448.66;8354409;28;20064;-56
2022/10/01 08:49:58;;;;;;;4.55;0.60;;;;;;;16.88;98.58;99463.75;8356306;28;20060;-56
2022/10/01 08:54:26;;;;;;;4.53;0.80;;;;;;;16.75;99.32;99453.66;8358895;28;20512;-56
2022/10/01 08:58:39;;;;;;;2.08;0.70;;;;;;;16.67;100.00;99472.09;8355340;28;20041;-55
2022/10/01 09:02:42;;;;;;;1.30;0.40;;;;;;;16.56;100.00;99465.34;8354227;28;20056;-51
2022/10/01 09:06:48;;;;;;;0.73;0.40;;;;;;;16.55;100.00;99476.47;8348629;28;20383;-54
2022/10/01 09:11:03;;;;;;;2.55;0.50;;;;;;;16.57;100.00;99482.56;8337123;28;20194;-56
2022/10/01 09:19:56;;;;;;;1.17;0.47;;;;;;;16.69;98.74;99502.75;8326589;27;20393;-54
2022/10/01 09:24:14;;;;;;;2.53;0.90;;;;;;;16.82;97.34;99505.53;8321842;28;20044;-55
2022/10/01 09:32:33;;;;;;;1.55;1.00;;;;;;;19.83;84.46;99520.19;8290928;28;20348;-54
2022/10/01 09:36:37;;;;;;;2.20;1.05;;;;;;;20.24;79.29;99512.22;8278778;28;20049;-55
2022/10/01 09:40:53;;;;;;;4.22;1.45;;;;;;;19.05;85.27;99516.91;8280177;28;20230;-55
2022/10/01 09:44:55;;;;;;;6.20;2.17;;;;;;;18.42;88.60;99512.34;8274889;28;20381;-54
2022/10/01 09:49:07;;;;;;;7.28;2.30;;;;;;;18.32;89.67;99514.66;8273533;28;20121;-55
2022/10/01 09:53:19;;;;;;;6.25;1.83;;;;;;;17.97;92.44;99516.00;8277331;28;20057;-52
2022/10/01 09:57:30;;;;;;;6.32;2.25;;;;;;;18.73;89.93;99506.94;8273105;28;20621;-54
2022/10/01 10:01:46;;;;;;;6.22;2.15;;;;;;;19.06;86.23;99524.06;8279697;28;20323;-55
2022/10/01 10:05:48;;;;;;;7.45;2.17;;;;;;;20.26;83.01;99526.56;8278927;28;20042;-55
2022/10/01 10:09:50;;;;;;;5.68;1.90;;;;;;;19.86;81.92;99530.72;8279275;28;20142;-53
2022/10/01 10:13:53;;;;;;;6.57;2.00;;;;;;;19.54;82.95;99534.56;8279501;28;20495;-54
2022/10/01 10:18:05;;;;;;;7.93;1.88;;;;;;;20.22;79.32;99522.59;8263604;28;20034;-55
2022/10/01 10:22:18;;;;;;;6.00;1.83;;;;;;;20.04;79.98;99533.50;8256700;28;20040;-55
2022/10/01 10:26:27;;;;;;;8.55;1.92;;;;;;;20.52;75.99;99542.78;8270750;28;20034;-56
2022/10/01 10:30:28;;;;;;;9.90;1.60;;;;;;;21.58;74.08;99538.41;8270889;28;20036;-55
2022/10/01 10:34:34;;;;;;;6.22;1.50;;;;;;;22.56;69.60;99554.97;8279761;28;20034;-56
2022/10/01 10:38:35;;;;;;;8.75;2.33;;;;;;;22.51;70.17;99549.31;8275373;28;20049;-55
2022/10/01 10:42:37;;;;;;;6.15;1.67;;;;;;;21.94;70.31;99555.63;8263450;28;20125;-55
2022/10/01 10:46:38;;;;;;;8.07;1.77;;;;;;;21.86;69.08;99564.22;8256683;28;20495;-55
2022/10/01 10:50:42;;;;;;;6.20;1.92;;;;;;;23.39;66.68;99554.53;8252467;28;20536;-56
2022/10/01 10:54:47;;;;;;;3.42;1.55;;;;;;;23.89;64.46;99555.47;8253937;28;20051;-55
2022/10/01 10:58:49;;;;;;;6.65;1.95;;;;;;;20.97;70.31;99568.88;8255922;28;20500;-52
2022/10/01 11:02:55;;;;;;;5.70;2.40;;;;;;;20.35;74.24;99571.88;8243558;28;20046;-55
2022/10/01 11:07:00;;;;;;;6.55;1.60;;;;;;;22.52;66.15;99577.72;8255195;28;20149;-54
2022/10/01 11:11:40;;;;;;;3.92;1.33;;;;;;;22.96;65.40;99593.59;8249007;28;20411;-54
2022/10/01 11:20:37;;;;;;;6.40;1.83;;;;;;;21.45;65.51;99585.38;8330817;27;20392;-56
2022/10/01 11:25:04;;;;;;;10.32;2.28;;;;;;;19.77;72.92;99592.41;8345067;28;20038;-54
2022/10/01 11:29:32;;;;;;;8.27;2.25;;;;;;;21.48;69.42;99584.91;8335233;28;20531;-53
2022/10/01 11:33:59;;;;;;;7.40;2.05;;;;;;;20.22;72.28;99589.31;8323039;28;20053;-52
2022/10/01 11:38:39;;;;;;;8.55;2.20;;;;;;;19.59;75.37;99606.03;8350257;28;20040;-55
2022/10/01 11:42:43;;;;;;;10.55;2.20;;;;;;;20.56;72.64;99604.41;8318305;28;20037;-56
2022/10/01 11:46:59;;;;;;;7.13;2.20;;;;;;;19.85;73.64;99605.88;8318675;28;20037;-55
2022/10/01 11:51:14;;;;;;;8.95;2.20;;;;;;;19.42;76.72;99617.50;8343370;28;20091;-56
2022/10/01 12:00:00;;;;;;;9.93;1.70;;;;;;;21.59;70.48;99611.63;8320818;28;20033;-56
2022/10/01 12:04:10;;;;;;;9.68;2.00;;;;;;;22.17;66.44;99602.47;8326297;28;20112;-54
2022/10/01 12:08:21;;;;;;;5.75;1.67;;;;;;;24.06;60.33;99617.94;8311637;28;20843;-55
2022/10/01 12:12:26;;;;;;;9.88;1.92;;;;;;;22.80;61.44;99614.50;8335371;28;20144;-53
2022/10/01 12:16:41;;;;;;;9.38;2.03;;;;;;;20.61;68.32;99634.75;8344448;28;20037;-57
2022/10/01 12:20:48;;;;;;;6.22;2.00;;;;;;;20.69;69.94;99642.72;8343255;28;20098;-56
2022/10/01 12:24:49;;;;;;;7.15;1.77;;;;;;;23.30;64.08;99649.81;8302216;28;20042;-53
2022/10/01 12:29:07;;;;;;;11.25;2.10;;;;;;;24.69;60.13;99645.25;8295049;28;20041;-56
2022/10/01 12:33:50;;;;;;;8.70;1.85;;;;;;;25.04;59.11;99648.56;8284031;28;20618;-53
2022/10/01 12:38:30;;;;;;;6.00;1.30;;;;;;;23.61;60.12;99657.63;8290762;28;20071;-53
2022/10/01 12:42:55;;;;;;;10.82;2.20;;;;;;;21.81;65.89;99667.84;8294797;28;20503;-55
2022/10/01 12:47:14;;;;;;;6.50;1.85;;;;;;;21.23;66.92;99664.78;8308365;28;20380;-53
2022/10/01 12:51:54;;;;;;;6.55;1.40;;;;;;;21.40;66.36;99652.06;8302743;28;20510;-53
2022/10/01 12:56:03;;;;;;;11.00;1.90;;;;;;;21.51;65.07;99658.69;8315664;28;20554;-54
2022/10/01 13:00:12;;;;;;;10.45;2.10;;;;;;;21.34;65.24;99653.00;8266132;28;20612;-55
2022/10/01 13:04:31;;;;;;;9.05;1.67;;;;;;;21.33;64.53;99656.81;8261353;28;20038;-56
2022/10/01 13:08:57;;;;;;;12.63;2.10;;;;;;;20.96;65.11;99661.50;8287339;28;20416;-57
2022/10/01 13:17:30;;;;;;;12.13;1.85;;;;;;;20.03;73.49;99685.50;8379252;27;20378;-54
2022/10/01 13:22:10;;;;;;;5.30;1.85;;;;;;;20.21;75.36;99700.19;8371416;28;20080;-53
2022/10/01 13:26:17;;;;;;;7.35;1.63;;;;;;;19.44;76.95;99703.13;8374685;28;20421;-54
2022/10/01 13:30:22;;;;;;;5.35;1.38;;;;;;;19.21;78.27;99707.38;8377863;28;20035;-55
2022/10/01 13:38:42;;;;;;;5.60;2.00;;;;;;;19.19;77.38;99721.31;8329475;27;20398;-55
2022/10/01 13:42:45;;;;;;;5.83;1.40;;;;;;;19.17;76.91;99715.22;8313850;28;20037;-56
2022/10/01 13:46:51;;;;;;;5.60;1.80;;;;;;;19.41;77.06;99716.44;8311604;28;20022;-54
2022/10/01 13:51:03;;;;;;;11.57;1.92;;;;;;;19.75;76.48;99726.19;8304644;28;20133;-55
2022/10/01 13:55:03;;;;;;;5.43;1.80;;;;;;;20.38;77.84;99727.94;8299932;28;20044;-52
2022/10/01 13:59:25;;;;;;;12.32;2.55;;;;;;;20.02;75.81;99722.22;8305560;28;20037;-54
2022/10/01 14:04:05;;;;;;;8.85;2.03;;;;;;;20.41;76.14;99741.22;8309223;28;20046;-56
2022/10/01 14:08:35;;;;;;;8.80;1.95;;;;;;;20.09;74.44;99734.00;8308885;28;20045;-55
2022/10/01 14:17:01;;;;;;;10.68;2.67;;;;;;;20.96;74.15;99760.44;8303608;28;20076;-54
2022/10/01 14:25:52;;;;;;;10.57;1.95;;;;;;;20.73;68.25;99765.66;8321605;27;20392;-52
2022/10/01 14:38:39;;;;;;;8.73;1.90;;;;;;;20.07;65.56;99785.53;8321014;27;20848;-55
2022/10/01 14:42:39;;;;;;;8.90;1.80;;;;;;;19.86;67.06;99799.56;8304918;28;20411;-53
2022/10/01 14:46:40;;;;;;;6.87;2.00;;;;;;;19.62;67.18;99781.94;8312615;28;20029;-54
2022/10/01 14:50:46;;;;;;;9.23;2.05;;;;;;;19.61;68.41;99813.16;8299498;28;20280;-54
2022/10/01 14:54:57;;;;;;;9.30;1.95;;;;;;;19.61;68.35;99815.06;8309237;28;20045;-56
2022/10/01 14:59:02;;;;;;;13.13;2.70;;;;;;;19.62;68.01;99808.53;8296565;28;20069;-55
2022/10/01 15:03:14;;;;;;;9.73;1.23;;;;;;;19.61;66.90;99823.31;8299146;28;20045;-53
2022/10/01 15:07:16;;;;;;;6.00;1.75;;;;;;;19.54;67.43;99836.19;8310740;28;20033;-54
2022/10/01 15:11:21;;;;;;;8.27;1.58;;;;;;;19.74;68.17;99845.19;8305324;28;20064;-55
2022/10/01 15:15:32;;;;;;;11.45;2.00;;;;;;;19.62;67.53;99846.91;8297824;28;20084;-52
2022/10/01 15:19:39;;;;;;;7.70;1.75;;;;;;;19.48;67.80;99856.25;8314766;28;20128;-56
2022/10/01 15:23:40;;;;;;;7.93;1.75;;;;;;;19.35;69.05;99860.69;8313249;28;20107;-55
2022/10/01 15:27:40;;;;;;;10.30;2.00;;;;;;;19.32;69.04;99866.59;8307229;28;20095;-56
2022/10/01 15:31:44;;;;;;;7.15;1.40;;;;;;;19.33;67.65;99860.06;8301765;28;20034;-56
2022/10/01 15:35:44;;;;;;;9.63;1.45;;;;;;;19.30;68.46;99867.84;8295440;28;20503;-53
2022/10/01 15:39:49;;;;;;;7.13;1.92;;;;;;;19.22;68.66;99868.06;8302130;28;20550;-56
2022/10/01 15:43:49;;;;;;;;;;;;;;;19.19;69.28;99885.75;8293083;28;20055;-54
2022/10/01 15:47:55;;;;;;;13.52;1.58;;;;;;;19.15;69.52;99881.75;8316257;28;19924;-55
2022/10/01 15:53:02;;;;;;;12.48;2.60;;;;;;;18.92;70.62;99894.19;8284750;28;20569;-52
2022/10/01 15:56:22;;;;;;;12.80;2.28;;;;;;;18.90;68.64;99894.38;8258467;28;20509;-54
2022/10/01 16:00:26;;;;;;;10.15;1.38;;;;;;;18.85;69.17;99902.38;8284923;28;20046;-55
2022/10/01 16:04:27;;;;;;;13.68;1.05;;;;;;;18.79;70.50;99905.94;8292978;28;20466;-52
2022/10/01 16:08:33;;;;;;;8.50;1.40;;;;;;;18.67;70.44;99913.06;8267907;28;20057;-56
2022/10/01 16:12:33;;;;;;;9.10;1.27;;;;;;;18.61;70.71;99930.38;8283739;28;20061;-55
2022/10/01 16:17:14;;;;;;;9.40;1.65;;;;;;;18.53;71.02;99935.16;8284552;28;20038;-55
2022/10/01 16:21:14;;;;;;;7.80;1.50;;;;;;;18.31;72.40;99939.91;8276302;28;20118;-54
2022/10/01 16:29:31;;;;;;;12.70;1.88;;;;;;;17.73;75.66;99965.03;8325195;27;20478;-55
2022/10/01 16:33:31;;;;;;;15.07;1.90;;;;;;;17.83;75.86;99970.13;8307525;28;20103;-51
2022/10/01 16:37:32;;;;;;;7.60;1.40;;;;;;;17.60;77.72;99973.16;8313822;28;20095;-55
2022/10/01 16:41:34;;;;;;;11.50;1.50;;;;;;;17.46;80.00;99972.19;8304405;28;20280;-55
2022/10/01 16:45:37;;;;;;;10.88;1.65;;;;;;;17.49;79.92;99990.09;8311982;28;20272;-55
2022/10/01 16:49:37;;;;;;;12.00;1.80;;;;;;;17.40;80.76;99988.50;8304343;28;20266;-52
2022/10/01 16:53:41;;;;;;;13.60;2.03;;;;;;;17.43;79.92;100007.28;8307009;28;20041;-55
2022/10/01 16:57:41;;;;;;;24.25;7.95;;;;;;;17.32;80.38;100013.22;8308004;28;20568;-56
2022/10/01 17:01:43;;;;;;;11.82;2.35;;;;;;;17.20;80.80;100021.09;8296188;28;20038;-54
2022/10/01 17:05:44;;;;;;;9.82;1.80;;;;;;;17.02;81.22;100036.25;8305925;28;20517;-56
2022/10/01 17:09:45;;;;;;;7.07;1.73;;;;;;;16.97;81.99;100046.91;8310750;28;20042;-55
2022/10/01 17:13:46;;;;;;;9.43;2.42;;;;;;;16.94;82.56;100041.84;8297619;28;20045;-56
2022/10/01 17:17:46;;;;;;;12.77;2.23;;;;;;;16.94;82.62;100050.03;8324568;28;20047;-55
2022/10/01 17:21:46;;;;;;;11.90;2.25;;;;;;;16.82;82.50;100059.75;8321988;28;20335;-54
2022/10/01 17:25:48;;;;;;;4.88;1.30;;;;;;;16.82;82.45;100065.22;8307295;28;20049;-56
2022/10/01 17:29:48;;;;;;;12.68;1.67;;;;;;;16.74;83.21;100073.53;8312882;28;20270;-57
2022/10/01 17:33:50;;;;;;;9.73;2.05;;;;;;;16.41;84.50;100088.59;8312123;28;20029;-56
2022/10/01 17:37:50;;;;;;;6.75;1.77;;;;;;;16.25;85.84;100086.88;8306578;28;20177;-55
2022/10/01 17:41:51;;;;;;;12.90;2.28;;;;;;;16.05;87.38;100101.25;8290112;28;20034;-56
2022/10/01 17:46:00;;;;;;;9.57;2.05;;;;;;;15.67;89.28;100109.44;8287082;28;20033;-53
2022/10/01 17:50:01;;;;;;;65.80;29.38;;;;;;;15.52;90.36;100122.16;8275511;28;20077;-56
2022/10/01 17:54:03;;;;;;;46.83;17.73;;;;;;;15.37;91.84;100126.69;8292582;28;20042;-55
2022/10/01 17:58:05;;;;;;;32.67;10.43;;;;;;;15.30;90.90;100142.03;8289536;28;20480;-56
2022/10/01 18:02:07;;;;;;;18.58;4.00;;;;;;;15.09;92.82;100166.31;8293108;28;20435;-56
2022/10/01 18:06:12;;;;;;;11.15;3.97;;;;;;;14.61;94.54;100166.50;8296303;28;20319;-55
2022/10/01 18:10:12;;;;;;;32.42;10.15;;;;;;;14.59;94.30;100179.44;8290397;28;20045;-53
2022/10/01 18:14:13;;;;;;;27.58;11.30;;;;;;;14.52;94.33;100188.47;8290872;28;20045;-54
2022/10/01 18:18:14;;;;;;;50.67;20.10;;;;;;;14.35;95.69;100198.53;8284000;28;20038;-52
2022/10/01 18:22:14;;;;;;;35.95;13.88;;;;;;;14.17;97.00;100203.28;8275979;28;68262;-52
2022/10/01 18:26:15;;;;;;;24.63;10.20;;;;;;;14.45;93.31;100209.25;8252178;28;20041;-55
2022/10/01 18:32:36;;;;;;;27.25;13.05;;;;;;;14.36;93.94;100222.00;8347325;27;58801;-55
2022/10/01 18:37:05;;;;;;;21.65;11.45;;;;;;;14.30;93.95;100228.13;8344071;28;71132;-55
2022/10/01 18:41:12;;;;;;;14.10;6.72;;;;;;;14.35;93.78;100230.31;8330363;28;69388;-51
2022/10/01 18:45:17;;;;;;;17.17;5.72;;;;;;;14.49;92.71;100244.06;8299897;28;95086;-55
2022/10/01 18:49:45;;;;;;;14.60;4.97;;;;;;;14.48;92.40;100242.38;8296512;28;66621;-54
2022/10/01 18:54:13;;;;;;;9.00;3.13;;;;;;;14.42;91.55;100248.50;8317834;28;266987;-55
2022/10/01 19:03:06;;;;;;;14.77;3.67;;;;;;;14.48;90.35;100269.56;8384840;27;20361;-54
2022/10/01 19:07:38;;;;;;;18.88;3.38;;;;;;;14.23;92.23;100277.88;8375446;28;20048;-54
2022/10/01 19:11:49;;;;;;;15.55;3.40;;;;;;;14.24;92.26;100285.06;8296925;28;64121;-52
2022/10/01 19:20:47;;;;;;;10.68;3.75;;;;;;;14.28;91.63;100281.84;8340187;28;66989;-52
2022/10/01 19:25:17;;;;;;;10.75;3.92;;;;;;;14.24;92.52;100285.91;8355340;28;20438;-55
2022/10/01 19:31:08;;;;;;;12.32;5.07;;;;;;;14.27;93.22;100303.75;8310628;27;20391;-52
2022/10/01 19:39:31;;;;;;;11.60;3.20;;;;;;;14.26;93.29;100302.91;8301048;28;20907;-52
2022/10/01 19:43:54;;;;;;;14.65;3.15;;;;;;;14.30;93.69;100309.69;8272079;28;20046;-54
2022/10/01 19:48:18;;;;;;;14.52;4.10;;;;;;;14.39;93.32;100319.56;8281250;28;20049;-55
2022/10/01 19:52:21;;;;;;;17.70;3.45;;;;;;;14.20;93.50;100319.84;8268641;28;20065;-55
2022/10/01 19:56:26;;;;;;;12.82;3.78;;;;;;;14.07;95.24;100322.22;8264289;28;20050;-54
2022/10/01 20:00:29;;;;;;;13.88;3.80;;;;;;;14.04;96.33;100330.72;8278138;28;20046;-55
2022/10/01 20:04:37;;;;;;;15.18;3.67;;;;;;;14.09;96.02;100336.50;8280555;28;20566;-55
2022/10/01 20:08:51;;;;;;;15.43;4.00;;;;;;;14.09;96.10;100339.19;8280406;28;20125;-54
2022/10/01 20:13:14;;;;;;;17.83;4.22;;;;;;;14.14;96.10;100352.28;8281849;28;20046;-54
2022/10/01 20:17:24;;;;;;;20.40;3.95;;;;;;;14.16;95.81;100361.16;8280424;28;20483;-55
2022/10/01 20:21:48;;;;;;;18.83;4.47;;;;;;;14.11;96.57;100363.50;8276110;28;20746;-52
2022/10/01 20:26:04;;;;;;;15.60;3.50;;;;;;;14.22;95.99;100377.66;8277421;28;20034;-54